sensor_id;sensor_type;location;lat;lon;timestamp;pressure;altitude;pressure_sealevel;temperature;humidity
37764;BME280;23602;51.084;7.090;2023-02-19T00:02:20;100682.03;;;9.04;100.00
37764;BME280;23602;51.084;7.090;2023-02-19T00:04:46;100666.09;;;9.03;100.00
37764;BME280;23602;51.084;7.090;2023-02-19T00:07:11;100673.34;;;9.02;100.00
37764;BME280;23602;51.084;7.090;2023-02-19T00:09:37;100671.69;;;9.01;100.00
37764;BME280;23602;51.084;7.090;2023-02-19T00:12:02;100667.16;;;9.02;100.00
37764;BME280;23602;51.084;7.090;2023-02-19T00:14:27;100664.63;;;9.00;100.00
37764;BME280;23602;51.084;7.090;2023-02-19T00:16:53;100660.94;;;9.01;100.00
37764;BME280;23602;51.084;7.090;2023-02-19T00:19:19;100669.81;;;9.02;100.00
37764;BME280;23602;51.084;7.090;2023-02-19T00:21:44;100660.59;;;9.04;100.00
37764;BME280;23602;51.084;7.090;2023-02-19T00:24:10;100659.28;;;9.00;100.00
37764;BME280;23602;51.084;7.090;2023-02-19T00:26:37;100648.94;;;8.97;100.00
37764;BME280;23602;51.084;7.090;2023-02-19T00:29:02;100658.47;;;9.00;100.00
37764;BME280;23602;51.084;7.090;2023-02-19T00:31:31;100648.75;;;8.99;100.00
37764;BME280;23602;51.084;7.090;2023-02-19T00:33:57;100655.13;;;8.98;100.00
37764;BME280;23602;51.084;7.090;2023-02-19T00:36:23;100648.94;;;8.97;100.00
37764;BME280;23602;51.084;7.090;2023-02-19T00:38:49;100647.91;;;8.98;100.00
37764;BME280;23602;51.084;7.090;2023-02-19T00:41:15;100637.03;;;9.00;100.00
37764;BME280;23602;51.084;7.090;2023-02-19T00:46:12;100641.06;;;8.96;100.00
37764;BME280;23602;51.084;7.090;2023-02-19T00:48:38;100633.03;;;8.96;100.00
37764;BME280;23602;51.084;7.090;2023-02-19T00:51:03;100641.06;;;8.96;100.00
37764;BME280;23602;51.084;7.090;2023-02-19T00:53:28;100635.34;;;8.99;100.00
37764;BME280;23602;51.084;7.090;2023-02-19T00:55:54;100643.59;;;8.97;100.00
37764;BME280;23602;51.084;7.090;2023-02-19T00:58:19;100635.81;;;9.02;100.00
37764;BME280;23602;51.084;7.090;2023-02-19T01:00:44;100631.09;;;9.04;100.00
37764;BME280;23602;51.084;7.090;2023-02-19T01:03:10;100628.16;;;8.99;100.00
37764;BME280;23602;51.084;7.090;2023-02-19T01:05:35;100631.00;;;8.98;100.00
37764;BME280;23602;51.084;7.090;2023-02-19T01:08:01;100633.31;;;9.01;100.00
37764;BME280;23602;51.084;7.090;2023-02-19T01:10:26;100618.06;;;9.01;100.00
37764;BME280;23602;51.084;7.090;2023-02-19T01:12:52;100623.06;;;9.04;100.00
37764;BME280;23602;51.084;7.090;2023-02-19T01:15:17;100614.38;;;9.02;100.00
37764;BME280;23602;51.084;7.090;2023-02-19T01:17:43;100612.22;;;8.98;100.00
37764;BME280;23602;51.084;7.090;2023-02-19T01:20:08;100606.88;;;8.98;100.00
37764;BME280;23602;51.084;7.090;2023-02-19T01:22:33;100614.75;;;8.99;100.00
37764;BME280;23602;51.084;7.090;2023-02-19T01:24:59;100608.91;;;8.96;100.00
37764;BME280;23602;51.084;7.090;2023-02-19T01:27:24;100611.88;;;9.01;100.00
37764;BME280;23602;51.084;7.090;2023-02-19T01:29:50;100601.59;;;9.04;100.00
37764;BME280;23602;51.084;7.090;2023-02-19T01:32:15;100591.25;;;9.01;100.00
37764;BME280;23602;51.084;7.090;2023-02-19T01:34:41;100592.09;;;9.02;100.00
37764;BME280;23602;51.084;7.090;2023-02-19T01:37:06;100589.59;;;9.00;100.00
37764;BME280;23602;51.084;7.090;2023-02-19T01:39:39;100584.22;;;9.00;100.00
37764;BME280;23602;51.084;7.090;2023-02-19T01:42:04;100572.88;;;8.98;100.00
37764;BME280;23602;51.084;7.090;2023-02-19T01:47:15;100565.44;;;9.00;100.00
37764;BME280;23602;51.084;7.090;2023-02-19T01:49:51;100567.13;;;9.01;100.00
37764;BME280;23602;51.084;7.090;2023-02-19T01:52:21;100561.13;;;8.99;100.00
37764;BME280;23602;51.084;7.090;2023-02-19T01:54:49;100561.97;;;9.00;100.00
37764;BME280;23602;51.084;7.090;2023-02-19T01:57:16;100564.66;;;9.00;100.00
37764;BME280;23602;51.084;7.090;2023-02-19T01:59:42;100565.09;;;9.03;100.00
37764;BME280;23602;51.084;7.090;2023-02-19T02:02:08;100563.88;;;9.06;100.00
37764;BME280;23602;51.084;7.090;2023-02-19T02:04:33;100558.72;;;9.04;100.00
37764;BME280;23602;51.084;7.090;2023-02-19T02:06:59;100534.84;;;9.09;100.00
37764;BME280;23602;51.084;7.090;2023-02-19T02:09:27;100540.22;;;9.09;100.00
37764;BME280;23602;51.084;7.090;2023-02-19T02:12:11;100544.09;;;9.07;100.00
37764;BME280;23602;51.084;7.090;2023-02-19T02:14:38;100549.25;;;9.08;100.00
37764;BME280;23602;51.084;7.090;2023-02-19T02:22:00;100537.53;;;9.09;100.00
37764;BME280;23602;51.084;7.090;2023-02-19T02:24:48;100538.53;;;9.08;100.00
37764;BME280;23602;51.084;7.090;2023-02-19T02:32:27;100527.63;;;9.10;100.00
37764;BME280;23602;51.084;7.090;2023-02-19T02:35:00;100516.72;;;9.11;100.00
37764;BME280;23602;51.084;7.090;2023-02-19T02:37:28;100518.38;;;9.12;100.00
37764;BME280;23602;51.084;7.090;2023-02-19T02:39:57;100522.34;;;9.16;100.00
37764;BME280;23602;51.084;7.090;2023-02-19T02:42:23;100525.59;;;9.12;100.00
37764;BME280;23602;51.084;7.090;2023-02-19T02:44:51;100514.66;;;9.13;100.00
37764;BME280;23602;51.084;7.090;2023-02-19T02:47:36;100522.91;;;9.12;100.00
37764;BME280;23602;51.084;7.090;2023-02-19T02:50:12;100522.06;;;9.11;100.00
37764;BME280;23602;51.084;7.090;2023-02-19T02:52:40;100522.91;;;9.12;100.00
37764;BME280;23602;51.084;7.090;2023-02-19T02:55:26;100527.19;;;9.06;100.00
37764;BME280;23602;51.084;7.090;2023-02-19T02:57:54;100527.19;;;9.06;100.00
37764;BME280;23602;51.084;7.090;2023-02-19T03:00:19;100525.72;;;9.04;100.00
37764;BME280;23602;51.084;7.090;2023-02-19T03:02:45;100532.75;;;9.05;100.00
37764;BME280;23602;51.084;7.090;2023-02-19T03:05:12;100541.59;;;9.05;100.00
37764;BME280;23602;51.084;7.090;2023-02-19T03:08:05;100533.63;;;9.12;100.00
37764;BME280;23602;51.084;7.090;2023-02-19T03:10:40;100532.16;;;9.09;100.00
37764;BME280;23602;51.084;7.090;2023-02-19T03:13:09;100528.19;;;9.05;100.00
37764;BME280;23602;51.084;7.090;2023-02-19T03:15:55;100530.06;;;9.05;100.00
37764;BME280;23602;51.084;7.090;2023-02-19T03:18:44;100533.00;;;9.10;100.00
37764;BME280;23602;51.084;7.090;2023-02-19T03:21:30;100530.50;;;9.08;100.00
37764;BME280;23602;51.084;7.090;2023-02-19T03:23:56;100527.19;;;9.06;100.00
37764;BME280;23602;51.084;7.090;2023-02-19T03:26:41;100537.06;;;9.06;100.00
37764;BME280;23602;51.084;7.090;2023-02-19T03:29:07;100529.84;;;9.06;100.00
37764;BME280;23602;51.084;7.090;2023-02-19T03:31:56;100542.50;;;9.12;100.00
37764;BME280;23602;51.084;7.090;2023-02-19T03:34:27;100533.53;;;9.05;100.00
37764;BME280;23602;51.084;7.090;2023-02-19T03:37:01;100541.78;;;9.04;100.00
37764;BME280;23602;51.084;7.090;2023-02-19T03:39:30;100537.63;;;9.01;100.00
37764;BME280;23602;51.084;7.090;2023-02-19T03:44:33;100550.78;;;8.96;100.00
37764;BME280;23602;51.084;7.090;2023-02-19T03:54:33;100570.19;;;8.98;100.00
37764;BME280;23602;51.084;7.090;2023-02-19T03:57:04;100569.53;;;8.96;100.00
37764;BME280;23602;51.084;7.090;2023-02-19T03:59:41;100563.19;;;8.97;100.00
37764;BME280;23602;51.084;7.090;2023-02-19T04:04:37;100568.91;;;8.94;100.00
37764;BME280;23602;51.084;7.090;2023-02-19T04:07:03;100570.56;;;8.95;100.00
37764;BME280;23602;51.084;7.090;2023-02-19T04:09:29;100571.38;;;8.96;100.00
37764;BME280;23602;51.084;7.090;2023-02-19T04:11:57;100568.53;;;8.97;100.00
37764;BME280;23602;51.084;7.090;2023-02-19T04:14:27;100568.72;;;8.96;100.00
37764;BME280;23602;51.084;7.090;2023-02-19T04:16:58;100582.09;;;8.96;100.00
37764;BME280;23602;51.084;7.090;2023-02-19T04:19:26;100586.63;;;8.95;100.00
37764;BME280;23602;51.084;7.090;2023-02-19T04:21:53;100588.88;;;8.92;100.00
37764;BME280;23602;51.084;7.090;2023-02-19T04:24:25;100585.34;;;8.91;100.00
37764;BME280;23602;51.084;7.090;2023-02-19T04:26:52;100585.72;;;8.88;100.00
37764;BME280;23602;51.084;7.090;2023-02-19T04:29:17;100591.56;;;8.92;100.00
37764;BME280;23602;51.084;7.090;2023-02-19T04:31:43;100598.75;;;8.91;100.00
37764;BME280;23602;51.084;7.090;2023-02-19T04:34:08;100584.09;;;8.87;100.00
37764;BME280;23602;51.084;7.090;2023-02-19T04:36:34;100595.06;;;8.92;100.00
37764;BME280;23602;51.084;7.090;2023-02-19T04:38:59;100588.41;;;8.88;100.00
37764;BME280;23602;51.084;7.090;2023-02-19T04:41:24;100594.59;;;8.88;100.00
37764;BME280;23602;51.084;7.090;2023-02-19T04:43:50;100590.72;;;8.91;100.00
37764;BME280;23602;51.084;7.090;2023-02-19T04:46:15;100599.78;;;8.90;100.00
37764;BME280;23602;51.084;7.090;2023-02-19T04:48:41;100605.31;;;8.88;100.00
37764;BME280;23602;51.084;7.090;2023-02-19T04:51:07;100592.41;;;8.92;100.00
37764;BME280;23602;51.084;7.090;2023-02-19T04:53:32;100584.53;;;8.90;100.00
37764;BME280;23602;51.084;7.090;2023-02-19T04:56:04;100587.41;;;8.89;100.00
37764;BME280;23602;51.084;7.090;2023-02-19T04:58:29;100604.69;;;8.86;100.00
37764;BME280;23602;51.084;7.090;2023-02-19T05:00:55;100586.94;;;8.85;100.00
37764;BME280;23602;51.084;7.090;2023-02-19T05:03:20;100596.44;;;8.88;100.00
37764;BME280;23602;51.084;7.090;2023-02-19T05:05:45;100604.06;;;8.84;100.00
37764;BME280;23602;51.084;7.090;2023-02-19T05:08:11;100595.53;;;8.81;100.00
37764;BME280;23602;51.084;7.090;2023-02-19T05:10:36;100604.59;;;8.80;100.00
37764;BME280;23602;51.084;7.090;2023-02-19T05:13:02;100604.59;;;8.80;100.00
37764;BME280;23602;51.084;7.090;2023-02-19T05:15:27;100597.59;;;8.79;100.00
37764;BME280;23602;51.084;7.090;2023-02-19T05:17:52;100603.31;;;8.76;100.00
37764;BME280;23602;51.084;7.090;2023-02-19T05:20:18;100604.31;;;8.75;100.00
37764;BME280;23602;51.084;7.090;2023-02-19T05:22:43;100607.19;;;8.73;100.00
37764;BME280;23602;51.084;7.090;2023-02-19T05:25:08;100622.44;;;8.73;100.00
37764;BME280;23602;51.084;7.090;2023-02-19T05:27:34;100623.47;;;8.72;100.00
37764;BME280;23602;51.084;7.090;2023-02-19T05:29:59;100619.75;;;8.73;100.00
37764;BME280;23602;51.084;7.090;2023-02-19T05:32:24;100634.84;;;8.74;100.00
37764;BME280;23602;51.084;7.090;2023-02-19T05:34:50;100645.34;;;8.75;100.00
37764;BME280;23602;51.084;7.090;2023-02-19T05:37:15;100649.88;;;8.75;100.00
37764;BME280;23602;51.084;7.090;2023-02-19T05:39:41;100653.75;;;8.72;100.00
37764;BME280;23602;51.084;7.090;2023-02-19T05:42:06;100654.59;;;8.73;100.00
37764;BME280;23602;51.084;7.090;2023-02-19T05:44:31;100664.31;;;8.74;100.00
37764;BME280;23602;51.084;7.090;2023-02-19T05:47:00;100669.81;;;8.72;100.00
37764;BME280;23602;51.084;7.090;2023-02-19T05:49:25;100666.72;;;8.69;100.00
37764;BME280;23602;51.084;7.090;2023-02-19T05:51:50;100668.34;;;8.70;100.00
37764;BME280;23602;51.084;7.090;2023-02-19T05:54:16;100678.06;;;8.71;100.00
37764;BME280;23602;51.084;7.090;2023-02-19T05:56:41;100678.78;;;8.65;100.00
37764;BME280;23602;51.084;7.090;2023-02-19T05:59:14;100680.66;;;8.64;100.00
37764;BME280;23602;51.084;7.090;2023-02-19T06:01:40;100682.31;;;8.65;100.00
37764;BME280;23602;51.084;7.090;2023-02-19T06:04:05;100692.19;;;8.65;100.00
37764;BME280;23602;51.084;7.090;2023-02-19T06:06:30;100690.53;;;8.64;100.00
37764;BME280;23602;51.084;7.090;2023-02-19T06:08:55;100695.91;;;8.64;100.00
37764;BME280;23602;51.084;7.090;2023-02-19T06:11:21;100700.22;;;8.65;100.00
37764;BME280;23602;51.084;7.090;2023-02-19T06:13:46;100707.13;;;8.59;100.00
37764;BME280;23602;51.084;7.090;2023-02-19T06:16:14;100700.31;;;8.57;100.00
37764;BME280;23602;51.084;7.090;2023-02-19T06:18:42;100713.53;;;8.58;100.00
37764;BME280;23602;51.084;7.090;2023-02-19T06:21:08;100716.75;;;8.54;100.00
37764;BME280;23602;51.084;7.090;2023-02-19T06:23:34;100726.63;;;8.53;100.00
37764;BME280;23602;51.084;7.090;2023-02-19T06:26:19;100720.91;;;8.56;100.00
37764;BME280;23602;51.084;7.090;2023-02-19T06:28:44;100725.59;;;8.54;100.00
37764;BME280;23602;51.084;7.090;2023-02-19T06:31:10;100719.44;;;8.54;100.00
37764;BME280;23602;51.084;7.090;2023-02-19T06:33:36;100714.72;;;8.56;100.00
37764;BME280;23602;51.084;7.090;2023-02-19T06:36:05;100715.72;;;8.55;100.00
37764;BME280;23602;51.084;7.090;2023-02-19T06:38:30;100718.41;;;8.55;100.00
37764;BME280;23602;51.084;7.090;2023-02-19T06:40:59;100716.09;;;8.52;100.00
37764;BME280;23602;51.084;7.090;2023-02-19T06:43:25;100725.31;;;8.49;100.00
37764;BME280;23602;51.084;7.090;2023-02-19T06:45:50;100729.97;;;8.55;100.00
37764;BME280;23602;51.084;7.090;2023-02-19T06:48:15;100742.88;;;8.52;100.00
37764;BME280;23602;51.084;7.090;2023-02-19T06:50:41;100733.00;;;8.52;100.00
37764;BME280;23602;51.084;7.090;2023-02-19T06:53:06;100738.91;;;8.48;100.00
37764;BME280;23602;51.084;7.090;2023-02-19T06:55:33;100740.38;;;8.50;100.00
37764;BME280;23602;51.084;7.090;2023-02-19T06:57:58;100746.84;;;8.41;100.00
37764;BME280;23602;51.084;7.090;2023-02-19T07:00:23;100742.31;;;8.42;100.00
37764;BME280;23602;51.084;7.090;2023-02-19T07:02:49;100758.75;;;8.39;100.00
37764;BME280;23602;51.084;7.090;2023-02-19T07:05:20;100763.56;;;8.43;100.00
37764;BME280;23602;51.084;7.090;2023-02-19T07:07:45;100764.41;;;8.44;100.00
37764;BME280;23602;51.084;7.090;2023-02-19T07:10:11;100770.13;;;8.41;100.00
37764;BME280;23602;51.084;7.090;2023-02-19T07:12:36;100780.03;;;8.32;100.00
37764;BME280;23602;51.084;7.090;2023-02-19T07:15:01;100787.72;;;8.35;100.00
37764;BME280;23602;51.084;7.090;2023-02-19T07:17:30;100791.09;;;8.29;100.00
37764;BME280;23602;51.084;7.090;2023-02-19T07:19:55;100807.84;;;8.31;100.00
37764;BME280;23602;51.084;7.090;2023-02-19T07:22:21;100814.69;;;8.34;100.00
37764;BME280;23602;51.084;7.090;2023-02-19T07:24:46;100809.69;;;8.31;100.00
37764;BME280;23602;51.084;7.090;2023-02-19T07:27:12;100821.06;;;8.33;100.00
37764;BME280;23602;51.084;7.090;2023-02-19T07:29:37;100824.72;;;8.32;100.00
37764;BME280;23602;51.084;7.090;2023-02-19T07:32:02;100832.75;;;8.32;100.00
37764;BME280;23602;51.084;7.090;2023-02-19T07:34:28;100836.13;;;8.34;100.00
37764;BME280;23602;51.084;7.090;2023-02-19T07:36:53;100833.25;;;8.35;100.00
37764;BME280;23602;51.084;7.090;2023-02-19T07:39:22;100839.59;;;8.34;100.00
37764;BME280;23602;51.084;7.090;2023-02-19T07:41:47;100840.09;;;8.38;100.00
37764;BME280;23602;51.084;7.090;2023-02-19T07:44:12;100850.47;;;8.41;100.00
37764;BME280;23602;51.084;7.090;2023-02-19T07:46:40;100857.13;;;8.45;100.00
37764;BME280;23602;51.084;7.090;2023-02-19T07:49:05;100864.09;;;8.54;100.00
37764;BME280;23602;51.084;7.090;2023-02-19T07:51:31;100857.75;;;8.47;100.00
37764;BME280;23602;51.084;7.090;2023-02-19T07:53:56;100851.41;;;8.48;100.00
37764;BME280;23602;51.084;7.090;2023-02-19T07:56:21;100848.06;;;8.46;100.00
37764;BME280;23602;51.084;7.090;2023-02-19T07:58:47;100844.38;;;8.47;100.00
37764;BME280;23602;51.084;7.090;2023-02-19T08:01:13;100857.41;;;8.50;100.00
37764;BME280;23602;51.084;7.090;2023-02-19T08:03:39;100867.47;;;8.48;100.00
37764;BME280;23602;51.084;7.090;2023-02-19T08:06:04;100871.16;;;8.47;100.00
37764;BME280;23602;51.084;7.090;2023-02-19T08:08:30;100868.66;;;8.45;100.00
37764;BME280;23602;51.084;7.090;2023-02-19T08:10:58;100872.84;;;8.48;100.00
37764;BME280;23602;51.084;7.090;2023-02-19T08:13:42;100870.94;;;8.56;100.00
37764;BME280;23602;51.084;7.090;2023-02-19T08:16:11;100879.09;;;8.63;100.00
37764;BME280;23602;51.084;7.090;2023-02-19T08:18:37;100868.72;;;8.60;100.00
37764;BME280;23602;51.084;7.090;2023-02-19T08:21:02;100869.81;;;8.51;100.00
37764;BME280;23602;51.084;7.090;2023-02-19T08:23:28;100868.13;;;8.50;100.00
37764;BME280;23602;51.084;7.090;2023-02-19T08:25:56;100873.47;;;8.50;100.00
37764;BME280;23602;51.084;7.090;2023-02-19T08:28:21;100889.84;;;8.55;100.00
37764;BME280;23602;51.084;7.090;2023-02-19T08:30:47;100884.63;;;8.61;100.00
37764;BME280;23602;51.084;7.090;2023-02-19T08:33:14;100873.22;;;8.59;100.00
37764;BME280;23602;51.084;7.090;2023-02-19T08:35:39;100879.44;;;8.60;100.00
37764;BME280;23602;51.084;7.090;2023-02-19T08:38:05;100882.78;;;8.62;100.00
37764;BME280;23602;51.084;7.090;2023-02-19T08:40:31;100884.50;;;8.55;100.00
37764;BME280;23602;51.084;7.090;2023-02-19T08:43:03;100889.50;;;8.58;100.00
37764;BME280;23602;51.084;7.090;2023-02-19T08:45:28;100887.13;;;8.63;100.00
37764;BME280;23602;51.084;7.090;2023-02-19T08:47:53;100886.41;;;8.69;100.00
37764;BME280;23602;51.084;7.090;2023-02-19T08:50:19;100869.97;;;8.72;100.00
37764;BME280;23602;51.084;7.090;2023-02-19T08:52:44;100880.22;;;8.68;100.00
37764;BME280;23602;51.084;7.090;2023-02-19T08:55:12;100879.38;;;8.68;100.00
37764;BME280;23602;51.084;7.090;2023-02-19T08:57:38;100879.50;;;8.74;100.00
37764;BME280;23602;51.084;7.090;2023-02-19T09:00:12;100879.66;;;8.73;100.00
37764;BME280;23602;51.084;7.090;2023-02-19T09:02:38;100885.22;;;8.71;100.00
37764;BME280;23602;51.084;7.090;2023-02-19T09:05:03;100887.72;;;8.73;100.00
37764;BME280;23602;51.084;7.090;2023-02-19T09:07:30;100894.75;;;8.74;100.00
37764;BME280;23602;51.084;7.090;2023-02-19T09:09:55;100882.06;;;8.68;100.00
37764;BME280;23602;51.084;7.090;2023-02-19T09:12:20;100880.03;;;8.70;100.00
37764;BME280;23602;51.084;7.090;2023-02-19T09:14:46;100867.59;;;8.77;100.00
37764;BME280;23602;51.084;7.090;2023-02-19T09:17:11;100854.22;;;8.92;100.00
37764;BME280;23602;51.084;7.090;2023-02-19T09:19:37;100856.84;;;9.00;100.00
37764;BME280;23602;51.084;7.090;2023-02-19T09:22:02;100852.06;;;9.10;100.00
37764;BME280;23602;51.084;7.090;2023-02-19T09:24:28;100851.50;;;9.29;100.00
37764;BME280;23602;51.084;7.090;2023-02-19T09:26:54;100833.00;;;9.48;100.00
37764;BME280;23602;51.084;7.090;2023-02-19T09:29:20;100812.06;;;9.59;100.00
37764;BME280;23602;51.084;7.090;2023-02-19T09:31:45;100807.72;;;9.72;100.00
37764;BME280;23602;51.084;7.090;2023-02-19T09:34:15;100805.41;;;9.69;100.00
37764;BME280;23602;51.084;7.090;2023-02-19T09:36:41;100817.72;;;9.64;100.00
37764;BME280;23602;51.084;7.090;2023-02-19T09:39:07;100805.72;;;9.45;100.00
37764;BME280;23602;51.084;7.090;2023-02-19T09:41:34;100797.28;;;9.33;100.00
37764;BME280;23602;51.084;7.090;2023-02-19T09:44:02;100802.03;;;9.31;100.00
37764;BME280;23602;51.084;7.090;2023-02-19T09:46:29;100811.09;;;9.30;100.00
37764;BME280;23602;51.084;7.090;2023-02-19T09:49:03;100821.44;;;9.19;100.00
37764;BME280;23602;51.084;7.090;2023-02-19T09:51:29;100826.63;;;9.20;100.00
37764;BME280;23602;51.084;7.090;2023-02-19T09:53:56;100822.56;;;9.24;100.00
37764;BME280;23602;51.084;7.090;2023-02-19T09:56:22;100819.97;;;9.31;100.00
37764;BME280;23602;51.084;7.090;2023-02-19T09:58:49;100820.78;;;9.31;100.00
37764;BME280;23602;51.084;7.090;2023-02-19T10:01:16;100832.72;;;9.29;100.00
37764;BME280;23602;51.084;7.090;2023-02-19T10:03:46;100847.25;;;9.34;100.00
37764;BME280;23602;51.084;7.090;2023-02-19T10:06:17;100844.22;;;9.37;100.00
37764;BME280;23602;51.084;7.090;2023-02-19T10:08:44;100845.56;;;9.33;100.00
37764;BME280;23602;51.084;7.090;2023-02-19T10:11:11;100863.44;;;9.26;100.00
37764;BME280;23602;51.084;7.090;2023-02-19T10:13:39;100859.81;;;9.34;100.00
37764;BME280;23602;51.084;7.090;2023-02-19T10:16:06;100859.75;;;9.42;100.00
37764;BME280;23602;51.084;7.090;2023-02-19T10:18:41;100863.34;;;9.34;100.00
37764;BME280;23602;51.084;7.090;2023-02-19T10:21:13;100877.13;;;9.31;100.00
37764;BME280;23602;51.084;7.090;2023-02-19T10:23:38;100887.94;;;9.23;100.00
37764;BME280;23602;51.084;7.090;2023-02-19T10:26:04;100906.97;;;9.14;100.00
37764;BME280;23602;51.084;7.090;2023-02-19T10:28:31;100925.25;;;9.10;100.00
37764;BME280;23602;51.084;7.090;2023-02-19T10:30:58;100929.31;;;9.06;100.00
37764;BME280;23602;51.084;7.090;2023-02-19T10:33:24;100930.03;;;9.00;100.00
37764;BME280;23602;51.084;7.090;2023-02-19T10:38:24;100944.88;;;8.88;100.00
37764;BME280;23602;51.084;7.090;2023-02-19T10:40:56;100969.34;;;8.85;100.00
37764;BME280;23602;51.084;7.090;2023-02-19T10:43:24;100988.50;;;8.82;100.00
37764;BME280;23602;51.084;7.090;2023-02-19T10:45:55;100990.50;;;8.80;100.00
37764;BME280;23602;51.084;7.090;2023-02-19T10:48:27;100997.72;;;8.79;100.00
37764;BME280;23602;51.084;7.090;2023-02-19T10:50:54;101011.53;;;8.91;100.00
37764;BME280;23602;51.084;7.090;2023-02-19T10:53:35;101015.13;;;9.06;100.00
37764;BME280;23602;51.084;7.090;2023-02-19T10:56:06;101015.53;;;9.18;100.00
37764;BME280;23602;51.084;7.090;2023-02-19T10:58:31;101006.22;;;9.28;100.00
37764;BME280;23602;51.084;7.090;2023-02-19T11:01:08;100988.03;;;9.38;100.00
37764;BME280;23602;51.084;7.090;2023-02-19T11:03:34;100983.53;;;9.53;100.00
37764;BME280;23602;51.084;7.090;2023-02-19T11:06:02;100979.00;;;9.69;100.00
37764;BME280;23602;51.084;7.090;2023-02-19T11:08:28;100977.09;;;9.92;100.00
37764;BME280;23602;51.084;7.090;2023-02-19T11:10:54;100979.91;;;10.13;100.00
37764;BME280;23602;51.084;7.090;2023-02-19T11:13:27;100949.22;;;10.07;100.00
37764;BME280;23602;51.084;7.090;2023-02-19T11:15:55;100940.09;;;10.17;100.00
37764;BME280;23602;51.084;7.090;2023-02-19T11:20:52;100933.88;;;10.01;100.00
37764;BME280;23602;51.084;7.090;2023-02-19T11:23:21;100932.25;;;10.07;100.00
37764;BME280;23602;51.084;7.090;2023-02-19T11:25:48;100934.31;;;10.05;100.00
37764;BME280;23602;51.084;7.090;2023-02-19T11:28:22;100933.19;;;9.99;100.00
37764;BME280;23602;51.084;7.090;2023-02-19T11:30:48;100941.63;;;9.82;100.00
37764;BME280;23602;51.084;7.090;2023-02-19T11:33:18;100922.94;;;9.59;100.00
37764;BME280;23602;51.084;7.090;2023-02-19T11:35:48;100928.84;;;9.54;100.00
37764;BME280;23602;51.084;7.090;2023-02-19T11:38:14;100946.44;;;9.57;100.00
37764;BME280;23602;51.084;7.090;2023-02-19T11:40:42;100942.06;;;9.41;100.00
37764;BME280;23602;51.084;7.090;2023-02-19T11:45:47;100950.38;;;9.32;100.00
37764;BME280;23602;51.084;7.090;2023-02-19T11:53:32;100969.19;;;9.09;100.00
37764;BME280;23602;51.084;7.090;2023-02-19T11:56:06;100976.13;;;9.18;100.00
37764;BME280;23602;51.084;7.090;2023-02-19T12:01:47;101001.31;;;9.17;100.00
37764;BME280;23602;51.084;7.090;2023-02-19T12:03:56;101006.13;;;9.22;100.00
37764;BME280;23602;51.084;7.090;2023-02-19T12:09:17;100997.53;;;9.26;100.00
37764;BME280;23602;51.084;7.090;2023-02-19T12:11:48;100995.88;;;9.25;100.00
37764;BME280;23602;51.084;7.090;2023-02-19T12:14:24;100993.94;;;9.34;100.00
37764;BME280;23602;51.084;7.090;2023-02-19T12:17:10;100992.03;;;9.42;100.00
37764;BME280;23602;51.084;7.090;2023-02-19T12:20:40;100987.03;;;9.39;100.00
37764;BME280;23602;51.084;7.090;2023-02-19T12:22:48;100983.84;;;9.36;100.00
37764;BME280;23602;51.084;7.090;2023-02-19T12:28:11;101000.75;;;9.22;100.00
37764;BME280;23602;51.084;7.090;2023-02-19T12:31:13;101007.72;;;9.08;100.00
37764;BME280;23602;51.084;7.090;2023-02-19T12:38:57;101039.59;;;9.03;100.00
37764;BME280;23602;51.084;7.090;2023-02-19T12:44:04;101046.88;;;8.95;100.00
37764;BME280;23602;51.084;7.090;2023-02-19T12:46:37;101039.00;;;8.93;100.00
37764;BME280;23602;51.084;7.090;2023-02-19T12:49:26;101040.38;;;8.89;100.00
37764;BME280;23602;51.084;7.090;2023-02-19T12:51:51;101044.94;;;8.80;100.00
37764;BME280;23602;51.084;7.090;2023-02-19T12:54:34;101055.84;;;8.79;100.00
37764;BME280;23602;51.084;7.090;2023-02-19T12:57:01;101053.63;;;8.82;100.00
37764;BME280;23602;51.084;7.090;2023-02-19T12:59:35;101059.28;;;8.87;100.00
37764;BME280;23602;51.084;7.090;2023-02-19T13:02:05;101059.28;;;8.87;100.00
37764;BME280;23602;51.084;7.090;2023-02-19T13:07:23;101071.47;;;8.98;100.00
37764;BME280;23602;51.084;7.090;2023-02-19T13:09:53;101071.47;;;8.98;100.00
37764;BME280;23602;51.084;7.090;2023-02-19T13:12:28;101068.66;;;8.92;100.00
37764;BME280;23602;51.084;7.090;2023-02-19T13:14:57;101069.31;;;8.94;100.00
37764;BME280;23602;51.084;7.090;2023-02-19T13:17:30;101074.34;;;8.97;100.00
37764;BME280;23602;51.084;7.090;2023-02-19T13:20:06;101086.00;;;9.04;100.00
37764;BME280;23602;51.084;7.090;2023-02-19T13:22:36;101077.09;;;9.11;100.00
37764;BME280;23602;51.084;7.090;2023-02-19T13:25:22;101081.22;;;9.22;100.00
37764;BME280;23602;51.084;7.090;2023-02-19T13:27:53;101077.63;;;9.29;100.00
37764;BME280;23602;51.084;7.090;2023-02-19T13:30:24;101075.91;;;9.36;100.00
37764;BME280;23602;51.084;7.090;2023-02-19T13:38:11;101049.28;;;9.72;100.00
37764;BME280;23602;51.084;7.090;2023-02-19T13:40:51;101036.34;;;9.76;100.00
37764;BME280;23602;51.084;7.090;2023-02-19T13:45:45;101020.88;;;9.92;100.00
37764;BME280;23602;51.084;7.090;2023-02-19T13:48:24;101017.91;;;9.87;100.00
37764;BME280;23602;51.084;7.090;2023-02-19T13:50:55;101028.84;;;9.86;100.00
37764;BME280;23602;51.084;7.090;2023-02-19T14:04:07;101040.69;;;9.39;100.00
37764;BME280;23602;51.084;7.090;2023-02-19T14:14:36;101066.72;;;9.08;100.00
37764;BME280;23602;51.084;7.090;2023-02-19T14:19:48;101061.63;;;8.90;100.00
37764;BME280;23602;51.084;7.090;2023-02-19T14:25:00;101062.81;;;8.88;100.00
37764;BME280;23602;51.084;7.090;2023-02-19T14:27:30;101063.66;;;8.88;100.00
37764;BME280;23602;51.084;7.090;2023-02-19T14:29:55;101066.16;;;8.90;100.00